createdAt,value
2019-04-04T00:00:07.281Z,8.70
2019-04-04T00:02:38.735Z,8.70
2019-04-04T00:05:09.095Z,8.60
2019-04-04T00:07:40.383Z,8.60
2019-04-04T00:10:12.494Z,8.60
2019-04-04T00:12:42.859Z,8.50
2019-04-04T00:15:14.920Z,8.50
2019-04-04T00:17:45.773Z,8.40
2019-04-04T00:20:16.153Z,8.40
2019-04-04T00:22:46.467Z,8.40
2019-04-04T00:25:16.809Z,8.40
2019-04-04T00:27:47.126Z,8.30
2019-04-04T00:30:17.991Z,8.30
2019-04-04T00:32:48.443Z,8.30
2019-04-04T00:35:18.789Z,8.20
2019-04-04T00:37:49.205Z,8.20
2019-04-04T00:40:19.581Z,8.20
2019-04-04T00:42:49.919Z,8.10
2019-04-04T00:45:21.929Z,8.10
2019-04-04T00:47:53.288Z,8.10
2019-04-04T00:50:23.621Z,8.00
2019-04-04T00:52:53.915Z,8.00
2019-04-04T00:55:24.259Z,8.00
2019-04-04T00:57:54.544Z,7.90
2019-04-04T01:00:24.889Z,7.90
2019-04-04T01:02:55.193Z,7.80
2019-04-04T01:05:25.550Z,7.80
2019-04-04T01:07:55.950Z,7.80
2019-04-04T01:10:26.230Z,7.80
2019-04-04T01:12:59.769Z,7.70
2019-04-04T01:15:31.904Z,7.70
2019-04-04T01:18:04.040Z,7.70
2019-04-04T01:20:34.267Z,7.60
2019-04-04T01:23:04.597Z,7.60
2019-04-04T01:25:34.885Z,7.60
2019-04-04T01:28:06.142Z,7.60
2019-04-04T01:30:37.146Z,7.60
2019-04-04T01:33:07.484Z,7.60
2019-04-04T01:35:37.790Z,7.60
2019-04-04T01:38:08.120Z,7.60
2019-04-04T01:40:38.453Z,7.60
2019-04-04T01:43:09.251Z,7.50
2019-04-04T01:45:43.725Z,7.50
2019-04-04T01:48:14.821Z,7.40
2019-04-04T01:50:45.172Z,7.40
2019-04-04T01:53:15.486Z,7.40
2019-04-04T01:55:45.817Z,7.40
2019-04-04T01:58:16.137Z,7.40
2019-04-04T02:00:46.670Z,7.30
2019-04-04T02:03:16.925Z,7.30
2019-04-04T02:05:47.311Z,7.20
2019-04-04T02:08:17.801Z,7.20
2019-04-04T02:10:48.114Z,7.20
2019-04-04T02:13:18.412Z,7.20
2019-04-04T02:15:49.523Z,7.20
2019-04-04T02:18:19.825Z,7.20
2019-04-04T02:20:50.281Z,7.20
2019-04-04T02:23:20.606Z,7.10
2019-04-04T02:25:50.947Z,7.10
2019-04-04T02:28:21.296Z,7.10
2019-04-04T02:30:51.945Z,7.10
2019-04-04T02:33:22.248Z,7.20
2019-04-04T02:35:52.589Z,7.10
2019-04-04T02:38:27.164Z,7.00
2019-04-04T02:40:54.854Z,7.00
2019-04-04T02:43:28.424Z,6.90
2019-04-04T02:45:58.842Z,6.90
2019-04-04T02:48:29.224Z,6.90
2019-04-04T02:50:59.561Z,6.90
2019-04-04T02:53:29.908Z,6.80
2019-04-04T02:56:03.378Z,6.80
2019-04-04T02:58:32.206Z,6.80
2019-04-04T03:01:02.496Z,6.80
2019-04-04T03:03:32.883Z,6.80
2019-04-04T03:06:03.120Z,6.80
2019-04-04T03:08:36.717Z,6.80
2019-04-04T03:11:05.359Z,6.70
2019-04-04T03:13:35.696Z,6.70
2019-04-04T03:16:07.235Z,6.70
2019-04-04T03:18:38.181Z,6.70
2019-04-04T03:21:08.585Z,6.70
2019-04-04T03:23:38.933Z,6.60
2019-04-04T03:26:09.285Z,6.50
2019-04-04T03:28:40.948Z,6.50
2019-04-04T03:31:11.845Z,6.50
2019-04-04T03:33:42.327Z,6.50
2019-04-04T03:36:13.703Z,6.50
2019-04-04T03:38:47.172Z,6.50
2019-04-04T03:41:15.960Z,6.50
2019-04-04T03:43:48.932Z,6.40
2019-04-04T03:46:19.808Z,6.40
2019-04-04T03:48:51.091Z,6.50
2019-04-04T03:51:21.612Z,6.40
2019-04-04T03:53:54.963Z,6.40
2019-04-04T03:56:25.279Z,6.40
2019-04-04T03:58:59.753Z,6.40
2019-04-04T04:01:27.590Z,6.40
2019-04-04T04:03:57.880Z,6.40
2019-04-04T04:06:28.216Z,6.30
2019-04-04T04:08:58.564Z,6.40
2019-04-04T04:11:28.881Z,6.40
2019-04-04T04:13:59.236Z,6.40
2019-04-04T04:16:30.238Z,6.30
2019-04-04T04:19:02.082Z,6.40
2019-04-04T04:21:32.401Z,6.30
2019-04-04T04:24:02.801Z,6.30
2019-04-04T04:26:33.136Z,6.30
2019-04-04T04:29:03.473Z,6.30
2019-04-04T04:31:33.773Z,6.40
2019-04-04T04:34:04.057Z,6.40
2019-04-04T04:36:34.573Z,6.40
2019-04-04T04:39:06.542Z,6.40
2019-04-04T04:41:36.869Z,6.40
2019-04-04T04:44:07.219Z,6.40
2019-04-04T04:46:40.261Z,6.40
2019-04-04T04:49:10.758Z,6.40
2019-04-04T04:51:43.275Z,6.40
2019-04-04T04:54:13.000Z,6.50
2019-04-04T04:56:44.040Z,6.50
2019-04-04T04:59:15.862Z,6.50
2019-04-04T05:01:46.163Z,6.50
2019-04-04T05:04:16.784Z,6.50
2019-04-04T05:06:47.071Z,6.60
2019-04-04T05:09:17.403Z,6.60
2019-04-04T05:11:48.106Z,6.60
2019-04-04T05:14:20.083Z,6.60
2019-04-04T05:16:53.209Z,6.70
2019-04-04T05:19:23.546Z,6.70
2019-04-04T05:21:53.821Z,6.80
2019-04-04T05:24:25.778Z,6.90
2019-04-04T05:26:56.149Z,6.90
2019-04-04T05:29:26.528Z,6.90
2019-04-04T05:31:56.859Z,7.00
2019-04-04T05:34:28.326Z,7.10
2019-04-04T05:36:59.154Z,7.20
2019-04-04T05:39:29.535Z,7.20
2019-04-04T05:42:00.492Z,7.20
2019-04-04T05:44:34.099Z,7.20
2019-04-04T05:47:03.746Z,7.20
2019-04-04T05:49:36.174Z,7.20
2019-04-04T05:52:09.000Z,7.20
2019-04-04T05:54:40.447Z,7.20
2019-04-04T05:57:10.782Z,7.30
2019-04-04T05:59:42.411Z,7.30
2019-04-04T06:02:12.847Z,7.40
2019-04-04T06:04:43.232Z,7.50
2019-04-04T06:07:16.271Z,7.50
2019-04-04T06:09:46.859Z,7.60
2019-04-04T06:12:17.470Z,7.60
2019-04-04T06:14:47.791Z,7.80
2019-04-04T06:17:18.171Z,7.90
2019-04-04T06:19:48.505Z,8.00
2019-04-04T06:22:19.085Z,8.10
2019-04-04T06:24:52.193Z,8.20
2019-04-04T06:27:22.797Z,8.30
2019-04-04T06:29:53.182Z,8.40
2019-04-04T06:32:23.535Z,8.50
2019-04-04T06:34:56.558Z,8.60
2019-04-04T06:37:25.895Z,8.70
2019-04-04T06:39:58.410Z,8.80
2019-04-04T06:42:28.286Z,8.90
2019-04-04T06:44:58.678Z,9.00
2019-04-04T06:47:32.255Z,9.20
2019-04-04T06:50:01.492Z,9.40
2019-04-04T06:52:31.789Z,9.40
2019-04-04T06:55:02.471Z,9.50
2019-04-04T06:57:36.141Z,9.60
2019-04-04T07:00:06.019Z,9.70
2019-04-04T07:02:36.346Z,9.70
2019-04-04T07:05:07.001Z,9.80
2019-04-04T07:07:37.511Z,9.80
2019-04-04T07:10:07.969Z,9.90
2019-04-04T07:12:38.791Z,9.90
2019-04-04T07:15:12.469Z,10.00
2019-04-04T07:17:43.068Z,10.10
2019-04-04T07:20:16.563Z,10.20
2019-04-04T07:22:46.547Z,10.30
2019-04-04T07:25:16.835Z,10.40
2019-04-04T07:27:47.396Z,10.50
2019-04-04T07:30:19.448Z,10.60
2019-04-04T07:32:49.755Z,10.60
2019-04-04T07:35:21.152Z,10.60
2019-04-04T07:37:56.620Z,10.80
2019-04-04T07:40:24.631Z,10.80
2019-04-04T07:42:55.045Z,10.90
2019-04-04T07:45:26.771Z,11.10
2019-04-04T07:47:58.058Z,11.20
2019-04-04T07:50:28.365Z,11.30
2019-04-04T07:52:58.746Z,11.50
2019-04-04T07:55:29.234Z,11.50
2019-04-04T07:57:59.817Z,11.60
2019-04-04T08:00:33.451Z,11.70
2019-04-04T08:03:03.773Z,11.90
2019-04-04T08:05:34.250Z,12.00
2019-04-04T08:08:04.639Z,12.10
2019-04-04T08:10:35.014Z,12.30
2019-04-04T08:13:07.081Z,12.40
2019-04-04T08:15:37.494Z,12.50
2019-04-04T08:18:09.032Z,12.60
2019-04-04T08:20:39.407Z,12.80
2019-04-04T08:23:09.812Z,12.90
2019-04-04T08:25:42.421Z,13.00
2019-04-04T08:28:12.790Z,13.10
2019-04-04T08:30:43.299Z,13.50
2019-04-04T08:33:13.657Z,14.80
2019-04-04T08:35:44.168Z,16.30
2019-04-04T08:38:14.533Z,17.80
2019-04-04T08:40:46.223Z,19.00
2019-04-04T08:43:16.692Z,20.10
2019-04-04T08:45:47.033Z,21.10
2019-04-04T08:48:17.360Z,22.20
2019-04-04T08:50:47.699Z,23.10
2019-04-04T08:53:18.134Z,23.80
2019-04-04T08:55:48.427Z,24.60
2019-04-04T08:58:18.821Z,25.20
2019-04-04T09:00:49.169Z,25.40
2019-04-04T09:03:19.505Z,25.30
2019-04-04T09:05:49.867Z,25.10
2019-04-04T09:08:20.289Z,25.10
2019-04-04T09:10:50.594Z,25.40
2019-04-04T09:13:20.908Z,25.70
2019-04-04T09:15:51.244Z,25.70
2019-04-04T09:21:39.262Z,25.50
2019-04-04T09:24:09.764Z,25.70
2019-04-04T09:26:40.107Z,26.30
2019-04-04T09:29:10.526Z,27.00
2019-04-04T09:31:40.847Z,27.40
2019-04-04T09:34:11.289Z,27.60
2019-04-04T09:36:41.564Z,27.60
2019-04-04T09:39:11.912Z,27.10
2019-04-04T09:48:07.078Z,23.20
2019-04-04T09:50:37.429Z,22.60
2019-04-04T09:53:09.225Z,22.20
2019-04-04T09:55:39.717Z,21.90
2019-04-04T09:58:10.171Z,22.10
2019-04-04T10:00:41.979Z,22.10
2019-04-04T10:03:12.688Z,22.00
2019-04-04T10:05:43.130Z,22.10
2019-04-04T10:08:13.539Z,22.20
2019-04-04T10:10:46.374Z,22.50
2019-04-04T10:13:18.249Z,23.10
2019-04-04T10:15:48.632Z,23.60
2019-04-04T10:18:19.029Z,24.30
2019-04-04T10:20:49.422Z,25.10
2019-04-04T10:23:20.458Z,25.50
2019-04-04T10:25:50.825Z,25.40
2019-04-04T10:28:23.372Z,25.30
2019-04-04T10:30:53.179Z,25.30
2019-04-04T10:33:23.622Z,25.20
2019-04-04T10:35:53.965Z,25.40
2019-04-04T10:38:24.265Z,25.50
2019-04-04T10:40:54.653Z,25.50
2019-04-04T10:43:25.014Z,25.60
2019-04-04T10:45:55.422Z,25.70
2019-04-04T10:48:25.819Z,25.50
2019-04-04T10:50:56.227Z,25.50
2019-04-04T10:53:27.233Z,25.70
2019-04-04T10:55:57.577Z,25.50
2019-04-04T10:58:28.040Z,24.80
2019-04-04T11:00:58.485Z,24.40
2019-04-04T11:03:28.847Z,24.40
2019-04-04T11:05:59.343Z,24.20
2019-04-04T11:08:29.796Z,24.10
2019-04-04T11:11:00.184Z,24.00
2019-04-04T11:13:33.808Z,24.10
2019-04-04T11:16:02.567Z,24.00
2019-04-04T11:18:33.102Z,24.10
2019-04-04T11:21:03.689Z,23.90
2019-04-04T11:23:34.173Z,23.70
2019-04-04T11:26:05.904Z,23.60
2019-04-04T11:28:36.254Z,23.40
2019-04-04T11:31:06.647Z,23.30
2019-04-04T11:33:44.760Z,23.20
2019-04-04T11:36:15.713Z,23.30
2019-04-04T11:38:46.072Z,23.20
2019-04-04T11:41:16.422Z,23.10
2019-04-04T11:43:46.759Z,23.00
2019-04-04T11:46:17.082Z,22.90
2019-04-04T11:48:47.463Z,22.90
2019-04-04T11:51:18.006Z,22.90
2019-04-04T11:53:49.851Z,22.80
2019-04-04T11:56:20.208Z,22.80
2019-04-04T11:58:50.659Z,22.60
2019-04-04T12:01:21.560Z,22.20
2019-04-04T12:03:51.931Z,22.10
2019-04-04T12:06:22.270Z,21.90
2019-04-04T12:08:53.024Z,21.90
2019-04-04T12:11:23.431Z,21.80
2019-04-04T12:13:55.215Z,21.70
2019-04-04T12:16:25.532Z,21.80
2019-04-04T12:18:55.901Z,21.80
2019-04-04T12:21:26.200Z,21.90
2019-04-04T12:23:57.086Z,21.90
2019-04-04T12:26:27.398Z,21.80
2019-04-04T12:28:57.771Z,21.30
2019-04-04T12:31:28.182Z,21.20
2019-04-04T12:33:58.528Z,21.10
2019-04-04T12:36:28.836Z,21.10
2019-04-04T12:38:59.278Z,20.80
2019-04-04T12:41:29.774Z,20.80
2019-04-04T12:44:00.158Z,20.80
2019-04-04T12:46:30.579Z,21.00
2019-04-04T12:49:00.932Z,21.00
2019-04-04T12:51:31.342Z,20.90
2019-04-04T12:54:01.696Z,20.80
2019-04-04T12:56:32.162Z,20.70
2019-04-04T12:59:03.012Z,20.60
2019-04-04T13:01:33.381Z,20.40
2019-04-04T13:04:04.032Z,20.20
2019-04-04T13:06:34.361Z,20.20
2019-04-04T13:09:07.680Z,20.10
2019-04-04T13:11:38.131Z,19.90
2019-04-04T13:14:08.484Z,19.80
2019-04-04T13:16:38.856Z,19.80
2019-04-04T13:19:09.175Z,19.80
2019-04-04T13:21:39.512Z,19.70
2019-04-04T13:24:10.298Z,19.50
2019-04-04T13:26:42.248Z,19.30
2019-04-04T13:29:12.612Z,19.30
2019-04-04T13:31:42.968Z,19.20
2019-04-04T13:34:13.292Z,19.20
2019-04-04T13:36:43.637Z,19.10
2019-04-04T13:39:14.024Z,19.10
2019-04-04T13:41:44.397Z,19.20
2019-04-04T13:44:14.899Z,19.10
2019-04-04T13:46:45.250Z,18.90
2019-04-04T13:49:16.071Z,18.80
2019-04-04T13:51:46.454Z,18.70
2019-04-04T13:54:35.814Z,18.70
2019-04-04T13:57:06.168Z,18.70
2019-04-04T13:59:37.432Z,18.70
2019-04-04T14:02:07.984Z,18.60
2019-04-04T14:04:38.366Z,18.60
2019-04-04T14:07:08.724Z,18.60
2019-04-04T14:09:39.114Z,18.50
2019-04-04T14:12:09.476Z,18.60
2019-04-04T14:14:39.865Z,18.60
2019-04-04T14:17:10.235Z,18.60
2019-04-04T14:19:40.640Z,18.50
2019-04-04T14:22:10.973Z,18.50
2019-04-04T14:24:42.212Z,18.60
2019-04-04T14:27:12.929Z,18.60
2019-04-04T14:29:43.312Z,18.60
2019-04-04T14:32:13.683Z,18.60
2019-04-04T14:34:44.077Z,18.50
2019-04-04T14:37:14.420Z,18.50
2019-04-04T14:39:44.752Z,18.50
2019-04-04T14:42:15.157Z,18.40
2019-04-04T14:44:45.564Z,18.40
2019-04-04T14:47:16.273Z,18.40
2019-04-04T14:49:48.688Z,18.30
2019-04-04T14:52:19.959Z,18.40
2019-04-04T14:54:52.322Z,18.30
2019-04-04T14:57:22.669Z,18.20
2019-04-04T14:59:53.090Z,18.30
2019-04-04T15:02:23.524Z,18.30
2019-04-04T15:04:53.868Z,18.30
2019-04-04T15:07:24.258Z,18.30
2019-04-04T15:09:54.557Z,18.20
2019-04-04T15:12:24.918Z,18.20
2019-04-04T15:14:55.210Z,18.20
2019-04-04T15:17:25.624Z,18.10
2019-04-04T15:19:55.926Z,18.20
2019-04-04T15:22:26.302Z,18.10
2019-04-04T15:24:57.737Z,18.10
2019-04-04T15:27:28.222Z,18.10
2019-04-04T15:29:58.586Z,18.10
2019-04-04T15:32:30.086Z,18.00
2019-04-04T15:35:00.468Z,18.10
2019-04-04T15:37:30.812Z,18.10
2019-04-04T15:40:01.187Z,18.10
2019-04-04T15:42:31.502Z,18.00
2019-04-04T15:45:01.844Z,17.80
2019-04-04T15:47:43.914Z,17.80
2019-04-04T15:50:14.713Z,17.70
2019-04-04T15:52:45.096Z,17.60
2019-04-04T15:55:16.290Z,17.60
2019-04-04T15:57:46.739Z,17.50
2019-04-04T16:00:18.156Z,17.50
2019-04-04T16:02:48.591Z,17.40
2019-04-04T16:05:18.940Z,17.40
2019-04-04T16:07:49.260Z,17.40
2019-04-04T16:10:19.702Z,17.30
2019-04-04T16:12:50.053Z,17.20
2019-04-04T16:15:20.478Z,17.10
2019-04-04T16:17:50.910Z,17.10
2019-04-04T16:20:21.409Z,17.10
2019-04-04T16:22:51.745Z,17.00
2019-04-04T16:25:22.550Z,16.90
2019-04-04T16:27:52.870Z,16.80
2019-04-04T16:30:23.232Z,16.80
2019-04-04T16:32:53.716Z,16.70
2019-04-04T16:35:24.102Z,16.70
2019-04-04T16:37:54.459Z,16.60
2019-04-04T16:40:25.788Z,16.60
2019-04-04T16:42:56.155Z,16.60
2019-04-04T16:45:26.466Z,16.60
2019-04-04T16:47:56.816Z,16.50
2019-04-04T16:50:27.252Z,16.40
2019-04-04T16:52:57.711Z,16.30
2019-04-04T16:55:42.890Z,16.30
2019-04-04T16:58:13.231Z,16.20
2019-04-04T17:00:44.258Z,16.10
2019-04-04T17:03:14.650Z,16.00
2019-04-04T17:05:45.060Z,15.90
2019-04-04T17:08:15.492Z,15.90
2019-04-04T17:10:45.902Z,15.80
2019-04-04T17:13:16.296Z,15.80
2019-04-04T17:15:46.631Z,15.80
2019-04-04T17:18:17.048Z,15.80
2019-04-04T17:20:47.376Z,15.70
2019-04-04T17:23:23.976Z,15.60
2019-04-04T17:25:54.435Z,15.60
2019-04-04T17:28:24.822Z,15.50
2019-04-04T17:30:55.480Z,15.50
2019-04-04T17:33:26.438Z,15.40
2019-04-04T17:35:56.784Z,15.30
2019-04-04T17:38:28.241Z,15.20
2019-04-04T17:40:58.599Z,15.20
2019-04-04T17:43:28.912Z,15.10
2019-04-04T17:45:59.921Z,15.10
2019-04-04T17:48:32.656Z,15.10
2019-04-04T17:51:02.407Z,15.00
2019-04-04T17:53:33.157Z,14.90
2019-04-04T17:56:04.065Z,14.80
2019-04-04T17:58:34.541Z,14.80
2019-04-04T18:01:06.414Z,14.70
2019-04-04T18:03:36.775Z,14.70
2019-04-04T18:06:07.228Z,14.60
2019-04-04T18:08:37.576Z,14.60
2019-04-04T18:11:08.012Z,14.60
2019-04-04T18:13:38.399Z,14.50
2019-04-04T18:16:08.700Z,14.50
2019-04-04T18:18:40.542Z,14.40
2019-04-04T18:21:11.001Z,14.40
2019-04-04T18:23:41.331Z,14.30
2019-04-04T18:26:12.999Z,14.30
2019-04-04T18:28:43.349Z,14.20
2019-04-04T18:31:14.368Z,14.20
2019-04-04T18:33:44.923Z,14.20
2019-04-04T18:36:15.358Z,14.10
2019-04-04T18:38:46.017Z,14.10
2019-04-04T18:41:16.474Z,14.00
2019-04-04T18:43:46.789Z,14.00
2019-04-04T18:46:17.129Z,14.00
2019-04-04T18:48:47.464Z,14.00
2019-04-04T18:51:17.838Z,13.90
2019-04-04T18:53:48.238Z,13.80
2019-04-04T18:56:20.002Z,13.80
2019-04-04T18:58:50.378Z,13.80
2019-04-04T19:01:20.818Z,13.80
2019-04-04T19:03:51.190Z,13.70
2019-04-04T19:06:21.543Z,13.70
2019-04-04T19:08:51.964Z,13.60
2019-04-04T19:11:22.441Z,13.60
2019-04-04T19:13:52.811Z,13.50
2019-04-04T19:16:23.146Z,13.50
2019-04-04T19:18:53.469Z,13.40
2019-04-04T19:21:23.968Z,13.40
2019-04-04T19:23:54.451Z,13.30
2019-04-04T19:26:25.521Z,13.30
2019-04-04T19:28:55.890Z,13.30
2019-04-04T19:31:26.228Z,13.20
2019-04-04T19:34:15.653Z,13.20
2019-04-04T19:36:45.958Z,13.20
2019-04-04T19:39:19.125Z,13.10
2019-04-04T19:41:49.506Z,13.20
2019-04-04T19:44:19.826Z,13.10
2019-04-04T19:46:50.252Z,13.00
2019-04-04T19:49:20.567Z,13.00
2019-04-04T19:51:51.050Z,13.10
2019-04-04T19:54:21.476Z,13.00
2019-04-04T19:56:52.762Z,13.00
2019-04-04T19:59:23.122Z,12.90
2019-04-04T20:01:53.535Z,12.90
2019-04-04T20:04:24.943Z,12.80
2019-04-04T20:06:55.321Z,12.80
2019-04-04T20:09:25.713Z,12.80
2019-04-04T20:11:56.061Z,12.80
2019-04-04T20:14:28.912Z,12.80
2019-04-04T20:16:58.505Z,12.80
2019-04-04T20:19:31.234Z,12.80
2019-04-04T20:22:00.815Z,12.80
2019-04-04T20:24:31.471Z,12.70
2019-04-04T20:27:02.475Z,12.60
2019-04-04T20:29:32.859Z,12.60
2019-04-04T20:32:03.310Z,12.60
2019-04-04T20:34:33.713Z,12.60
2019-04-04T20:37:04.097Z,12.50
2019-04-04T20:39:34.395Z,12.60
2019-04-04T20:42:04.852Z,12.50
2019-04-04T20:44:35.164Z,12.50
2019-04-04T20:47:05.492Z,12.40
2019-04-04T20:49:35.852Z,12.40
2019-04-04T20:52:06.156Z,12.40
2019-04-04T20:54:36.617Z,12.40
2019-04-04T20:57:08.384Z,12.40
2019-04-04T20:59:38.776Z,12.30
2019-04-04T21:02:09.087Z,12.30
2019-04-04T21:04:39.458Z,12.30
2019-04-04T21:07:14.726Z,12.20
2019-04-04T21:09:45.072Z,12.20
2019-04-04T21:12:15.404Z,12.10
2019-04-04T21:14:45.770Z,12.10
2019-04-04T21:17:16.127Z,12.10
2019-04-04T21:19:47.540Z,12.00
2019-04-04T21:22:27.531Z,12.00
2019-04-04T21:24:49.899Z,11.90
2019-04-04T21:27:23.625Z,11.90
2019-04-04T21:29:53.925Z,11.90
2019-04-04T21:32:24.266Z,11.80
2019-04-04T21:34:54.648Z,11.80
2019-04-04T21:37:24.950Z,11.80
2019-04-04T21:39:55.295Z,11.70
2019-04-04T21:42:25.599Z,11.60
2019-04-04T21:44:55.954Z,11.60
2019-04-04T21:47:26.287Z,11.60
2019-04-04T21:49:56.701Z,11.50
2019-04-04T21:52:27.036Z,11.50
2019-04-04T21:54:57.355Z,11.50
2019-04-04T21:57:28.830Z,11.50
2019-04-04T21:59:59.233Z,11.50
2019-04-04T22:02:29.666Z,11.40
2019-04-04T22:04:59.989Z,11.40
2019-04-04T22:07:30.376Z,11.40
2019-04-04T22:10:00.730Z,11.40
2019-04-04T22:12:31.150Z,11.30
2019-04-04T22:15:01.467Z,11.30
2019-04-04T22:17:31.916Z,11.30
2019-04-04T22:20:02.246Z,11.30
2019-04-04T22:22:32.586Z,11.20
2019-04-04T22:25:02.940Z,11.20
2019-04-04T22:27:34.520Z,11.10
2019-04-04T22:30:06.081Z,11.10
2019-04-04T22:32:36.366Z,11.00
2019-04-04T22:35:06.936Z,11.00
2019-04-04T22:37:37.296Z,11.00
2019-04-04T22:40:07.915Z,10.90
2019-04-04T22:42:49.239Z,10.90
2019-04-04T22:45:23.543Z,10.90
2019-04-04T22:47:53.867Z,10.80
2019-04-04T22:50:24.212Z,10.80
2019-04-04T22:52:54.535Z,10.80
2019-04-04T22:55:26.513Z,10.80
2019-04-04T22:57:58.497Z,10.70
2019-04-04T23:00:29.896Z,10.70
2019-04-04T23:03:01.339Z,10.70
2019-04-04T23:05:31.648Z,10.70
2019-04-04T23:08:02.055Z,10.60
2019-04-04T23:10:32.398Z,10.60
2019-04-04T23:13:02.762Z,10.60
2019-04-04T23:15:33.599Z,10.50
2019-04-04T23:18:03.928Z,10.50
2019-04-04T23:20:34.274Z,10.50
2019-04-04T23:23:04.591Z,10.40
2019-04-04T23:25:34.954Z,10.40
2019-04-04T23:28:06.754Z,10.40
2019-04-04T23:30:37.104Z,10.40
2019-04-04T23:33:07.400Z,10.30
2019-04-04T23:35:37.729Z,10.30
2019-04-04T23:38:08.056Z,10.30
2019-04-04T23:40:38.436Z,10.30
2019-04-04T23:43:08.745Z,10.30
2019-04-04T23:45:39.070Z,10.20
2019-04-04T23:48:09.428Z,10.20
2019-04-04T23:50:39.744Z,10.20
2019-04-04T23:53:10.104Z,10.20
2019-04-04T23:55:40.454Z,10.10
2019-04-04T23:58:11.335Z,10.10
